createdAt,value
2018-07-17T00:00:07.874Z,99.90
2018-07-17T00:02:36.553Z,99.90
2018-07-17T00:05:06.532Z,99.90
2018-07-17T00:07:35.242Z,99.90
2018-07-17T00:10:03.954Z,99.90
2018-07-17T00:12:32.529Z,99.90
2018-07-17T00:15:01.146Z,99.90
2018-07-17T00:17:29.758Z,99.90
2018-07-17T00:19:58.374Z,99.90
2018-07-17T00:22:26.974Z,99.90
2018-07-17T00:24:55.549Z,99.90
2018-07-17T00:27:24.153Z,99.90
2018-07-17T00:29:52.746Z,99.90
2018-07-17T00:32:21.381Z,99.90
2018-07-17T00:34:49.989Z,99.90
2018-07-17T00:37:18.629Z,99.90
2018-07-17T00:39:47.225Z,99.90
2018-07-17T00:42:15.825Z,99.90
2018-07-17T00:44:44.461Z,99.90
2018-07-17T00:47:13.104Z,99.90
2018-07-17T00:49:41.768Z,99.90
2018-07-17T00:52:10.353Z,99.90
2018-07-17T00:54:38.955Z,99.90
2018-07-17T00:57:07.573Z,99.90
2018-07-17T00:59:36.169Z,99.90
2018-07-17T01:02:10.128Z,99.90
2018-07-17T01:04:43.879Z,99.90
2018-07-17T01:07:17.926Z,99.90
2018-07-17T01:09:51.627Z,99.90
2018-07-17T01:12:19.434Z,99.90
2018-07-17T01:15:05.341Z,99.90
2018-07-17T01:17:35.096Z,99.90
2018-07-17T01:20:03.744Z,99.90
2018-07-17T01:22:32.385Z,99.90
2018-07-17T01:25:00.969Z,99.90
2018-07-17T01:27:29.597Z,99.90
2018-07-17T01:29:58.194Z,99.90
2018-07-17T01:32:26.841Z,99.90
2018-07-17T01:34:55.454Z,99.90
2018-07-17T01:37:24.135Z,99.90
2018-07-17T01:39:52.698Z,99.90
2018-07-17T01:42:21.309Z,99.90
2018-07-17T01:44:49.909Z,99.90
2018-07-17T01:47:18.604Z,99.90
2018-07-17T01:49:47.173Z,99.90
2018-07-17T01:52:15.817Z,99.90
2018-07-17T01:54:44.416Z,99.90
2018-07-17T01:57:13.031Z,99.90
2018-07-17T01:59:41.598Z,99.90
2018-07-17T02:02:10.186Z,99.90
2018-07-17T02:04:38.792Z,99.90
2018-07-17T02:07:07.665Z,99.90
2018-07-17T02:09:36.261Z,99.90
2018-07-17T02:12:04.857Z,99.90
2018-07-17T02:14:33.502Z,99.90
2018-07-17T02:17:02.153Z,99.90
2018-07-17T02:19:30.723Z,99.90
2018-07-17T02:21:59.352Z,99.90
2018-07-17T02:24:28.057Z,99.90
2018-07-17T02:26:56.750Z,99.90
2018-07-17T02:29:25.323Z,99.90
2018-07-17T02:31:53.945Z,99.90
2018-07-17T02:34:22.558Z,99.90
2018-07-17T02:36:51.137Z,99.90
2018-07-17T02:39:19.732Z,99.90
2018-07-17T02:41:51.277Z,99.90
2018-07-17T02:44:20.111Z,99.90
2018-07-17T02:46:48.693Z,99.90
2018-07-17T02:49:17.463Z,99.90
2018-07-17T02:51:46.061Z,99.90
2018-07-17T02:54:14.679Z,99.90
2018-07-17T02:56:43.274Z,99.90
2018-07-17T02:59:11.890Z,99.90
2018-07-17T03:01:40.576Z,99.90
2018-07-17T03:04:09.252Z,99.90
2018-07-17T03:06:37.881Z,99.90
2018-07-17T03:09:06.993Z,99.90
2018-07-17T03:11:35.618Z,99.90
2018-07-17T03:14:04.277Z,99.90
2018-07-17T03:16:32.904Z,99.90
2018-07-17T03:19:01.497Z,99.90
2018-07-17T03:21:30.155Z,99.90
2018-07-17T03:23:58.741Z,99.90
2018-07-17T03:26:27.346Z,99.90
2018-07-17T03:31:24.201Z,99.90
2018-07-17T03:33:52.785Z,99.90
2018-07-17T03:36:21.476Z,99.90
2018-07-17T03:38:50.106Z,99.90
2018-07-17T03:41:18.677Z,99.90
2018-07-17T03:43:47.294Z,99.90
2018-07-17T03:46:15.883Z,99.90
2018-07-17T03:48:44.487Z,99.90
2018-07-17T03:51:13.129Z,99.90
2018-07-17T03:53:41.763Z,99.90
2018-07-17T03:56:10.337Z,99.90
2018-07-17T03:58:38.937Z,99.90
2018-07-17T04:01:07.579Z,99.90
2018-07-17T04:03:36.222Z,99.90
2018-07-17T04:06:04.997Z,99.90
2018-07-17T04:08:33.701Z,99.90
2018-07-17T04:11:02.309Z,99.90
2018-07-17T04:13:30.953Z,99.90
2018-07-17T04:15:59.608Z,99.90
2018-07-17T04:18:28.301Z,99.90
2018-07-17T04:20:56.886Z,99.90
2018-07-17T04:23:25.506Z,99.90
2018-07-17T04:25:54.222Z,99.90
2018-07-17T04:28:23.020Z,99.90
2018-07-17T04:30:51.630Z,99.90
2018-07-17T04:33:20.321Z,99.90
2018-07-17T04:35:48.922Z,99.90
2018-07-17T04:38:17.637Z,99.90
2018-07-17T04:40:46.299Z,99.90
2018-07-17T04:43:14.953Z,99.90
2018-07-17T04:45:43.546Z,99.90
2018-07-17T04:48:12.167Z,99.90
2018-07-17T04:50:41.053Z,99.90
2018-07-17T04:53:09.752Z,99.90
2018-07-17T04:58:06.701Z,99.90
2018-07-17T05:00:35.615Z,99.90
2018-07-17T05:03:04.359Z,99.90
2018-07-17T05:05:33.705Z,99.90
2018-07-17T05:08:02.550Z,99.90
2018-07-17T05:10:31.170Z,99.90
2018-07-17T05:12:59.861Z,99.90
2018-07-17T05:15:28.393Z,99.90
2018-07-17T05:17:57.449Z,99.90
2018-07-17T05:20:26.269Z,99.90
2018-07-17T05:22:55.219Z,99.90
2018-07-17T05:25:23.778Z,99.90
2018-07-17T05:27:52.574Z,99.90
2018-07-17T05:30:21.220Z,99.90
2018-07-17T05:32:49.993Z,99.90
2018-07-17T05:35:18.805Z,99.90
2018-07-17T05:37:47.589Z,99.90
2018-07-17T05:40:16.544Z,99.90
2018-07-17T05:42:45.306Z,99.90
2018-07-17T05:45:13.894Z,99.90
2018-07-17T05:47:42.527Z,99.90
2018-07-17T05:50:12.288Z,99.90
2018-07-17T05:52:41.360Z,99.90
2018-07-17T05:55:10.003Z,99.90
2018-07-17T05:57:38.759Z,99.90
2018-07-17T06:00:11.565Z,99.90
2018-07-17T06:02:40.326Z,99.90
2018-07-17T06:05:09.157Z,99.90
2018-07-17T06:07:38.076Z,99.90
2018-07-17T06:10:06.874Z,99.90
2018-07-17T06:12:35.508Z,99.90
2018-07-17T06:15:04.453Z,99.90
2018-07-17T06:17:33.058Z,99.90
2018-07-17T06:20:01.752Z,99.90
2018-07-17T06:22:30.353Z,99.90
2018-07-17T06:24:59.203Z,99.90
2018-07-17T06:27:27.765Z,99.90
2018-07-17T06:29:56.412Z,99.90
2018-07-17T06:32:25.110Z,99.90
2018-07-17T06:34:53.722Z,99.90
2018-07-17T06:37:22.425Z,99.90
2018-07-17T06:39:51.014Z,99.90
2018-07-17T06:42:20.110Z,99.90
2018-07-17T06:44:48.989Z,99.90
2018-07-17T06:47:17.631Z,99.90
2018-07-17T06:49:46.310Z,99.90
2018-07-17T06:52:14.890Z,99.90
2018-07-17T06:54:43.621Z,99.90
2018-07-17T06:57:12.214Z,99.90
2018-07-17T06:59:40.870Z,99.90
2018-07-17T07:02:09.478Z,99.90
2018-07-17T07:04:38.090Z,99.90
2018-07-17T07:07:07.052Z,99.90
2018-07-17T07:09:35.769Z,99.90
2018-07-17T07:12:04.585Z,99.90
2018-07-17T07:14:33.281Z,99.90
2018-07-17T07:17:01.897Z,99.90
2018-07-17T07:19:30.578Z,99.90
2018-07-17T07:21:59.165Z,99.90
2018-07-17T07:24:27.793Z,99.90
2018-07-17T07:26:56.383Z,99.90
2018-07-17T07:29:25.036Z,99.90
2018-07-17T07:31:53.734Z,99.90
2018-07-17T07:34:22.365Z,99.90
2018-07-17T07:36:51.028Z,99.90
2018-07-17T07:39:19.625Z,99.90
2018-07-17T07:44:16.477Z,99.90
2018-07-17T07:46:45.105Z,99.90
2018-07-17T07:49:13.808Z,99.90
2018-07-17T07:51:42.441Z,99.90
2018-07-17T07:54:11.077Z,99.90
2018-07-17T07:56:39.687Z,99.90
2018-07-17T07:59:08.305Z,99.90
2018-07-17T08:01:36.885Z,99.90
2018-07-17T08:04:05.939Z,99.90
2018-07-17T08:06:34.491Z,99.90
2018-07-17T08:09:03.446Z,99.90
2018-07-17T08:11:32.078Z,99.90
2018-07-17T08:14:00.711Z,99.90
2018-07-17T08:16:29.513Z,99.90
2018-07-17T08:18:58.125Z,99.90
2018-07-17T08:21:26.833Z,99.90
2018-07-17T08:23:55.449Z,99.90
2018-07-17T08:26:24.081Z,99.90
2018-07-17T08:28:52.728Z,99.90
2018-07-17T08:31:21.400Z,99.90
2018-07-17T08:33:50.039Z,99.90
2018-07-17T08:36:18.653Z,99.90
2018-07-17T08:38:47.233Z,99.90
2018-07-17T08:41:15.885Z,99.90
2018-07-17T08:43:44.562Z,99.90
2018-07-17T08:46:13.133Z,99.90
2018-07-17T08:48:41.726Z,99.90
2018-07-17T08:51:10.362Z,99.90
2018-07-17T08:53:38.961Z,99.90
2018-07-17T08:58:35.814Z,99.90
2018-07-17T09:01:04.417Z,99.90
2018-07-17T09:03:33.006Z,99.90
2018-07-17T09:06:01.738Z,99.90
2018-07-17T09:08:30.421Z,99.90
2018-07-17T09:10:59.056Z,99.90
2018-07-17T09:13:27.681Z,99.90
2018-07-17T09:15:56.266Z,99.90
2018-07-17T09:18:24.865Z,99.90
2018-07-17T09:20:53.461Z,99.90
2018-07-17T09:23:22.124Z,99.90
2018-07-17T09:25:50.773Z,99.90
2018-07-17T09:28:19.435Z,99.90
2018-07-17T09:30:53.274Z,99.90
2018-07-17T09:33:21.878Z,99.90
2018-07-17T09:35:50.470Z,99.90
2018-07-17T09:38:19.093Z,99.90
2018-07-17T09:40:47.728Z,99.90
2018-07-17T09:43:16.344Z,99.90
2018-07-17T09:45:44.957Z,99.90
2018-07-17T09:48:13.529Z,99.90
2018-07-17T09:50:42.153Z,99.90
2018-07-17T09:53:10.745Z,99.90
2018-07-17T09:55:39.381Z,99.90
2018-07-17T09:58:08.133Z,99.90
2018-07-17T10:00:41.979Z,99.90
2018-07-17T10:03:11.455Z,99.90
2018-07-17T10:05:40.107Z,99.90
2018-07-17T10:08:08.723Z,99.90
2018-07-17T10:10:37.318Z,99.90
2018-07-17T10:13:06.161Z,99.90
2018-07-17T10:15:34.769Z,99.90
2018-07-17T10:18:03.359Z,99.90
2018-07-17T10:20:32.676Z,99.90
2018-07-17T10:23:01.271Z,99.90
2018-07-17T10:25:29.882Z,99.90
2018-07-17T10:27:58.474Z,99.90
2018-07-17T10:30:27.137Z,99.90
2018-07-17T10:32:55.837Z,99.90
2018-07-17T10:35:24.398Z,99.90
2018-07-17T10:37:52.985Z,99.90
2018-07-17T10:40:21.582Z,99.90
2018-07-17T10:42:50.245Z,98.40
2018-07-17T10:45:18.925Z,99.90
2018-07-17T10:47:47.534Z,99.20
2018-07-17T10:50:16.198Z,98.80
2018-07-17T10:52:44.826Z,97.40
2018-07-17T10:55:13.405Z,96.00
2018-07-17T10:57:42.095Z,97.10
2018-07-17T11:00:10.685Z,98.60
2018-07-17T11:02:39.322Z,98.50
2018-07-17T11:05:07.963Z,97.90
2018-07-17T11:07:36.798Z,93.90
2018-07-17T11:10:05.496Z,95.60
2018-07-17T11:12:34.089Z,94.30
2018-07-17T11:15:02.762Z,95.50
2018-07-17T11:17:31.373Z,96.50
2018-07-17T11:19:59.978Z,96.40
2018-07-17T11:22:28.605Z,92.70
2018-07-17T11:24:57.285Z,90.90
2018-07-17T11:27:29.412Z,95.00
2018-07-17T11:29:58.075Z,94.80
2018-07-17T11:32:26.686Z,93.50
2018-07-17T11:34:55.278Z,93.90
2018-07-17T11:37:23.889Z,92.80
2018-07-17T11:39:52.501Z,92.60
2018-07-17T11:42:21.086Z,89.00
2018-07-17T11:44:49.663Z,89.40
2018-07-17T11:47:18.302Z,89.20
2018-07-17T11:49:46.893Z,87.00
2018-07-17T11:52:15.846Z,90.60
2018-07-17T11:54:44.473Z,90.80
2018-07-17T11:57:13.091Z,90.00
2018-07-17T11:59:41.676Z,85.80
2018-07-17T12:02:10.270Z,84.10
2018-07-17T12:04:38.861Z,84.60
2018-07-17T12:07:07.499Z,85.20
2018-07-17T12:09:36.113Z,77.60
2018-07-17T12:12:04.741Z,83.30
2018-07-17T12:14:33.361Z,77.20
2018-07-17T12:17:01.981Z,78.70
2018-07-17T12:19:30.574Z,80.50
2018-07-17T12:21:59.160Z,82.00
2018-07-17T12:24:27.766Z,77.50
2018-07-17T12:26:56.396Z,76.50
2018-07-17T12:29:25.080Z,77.00
2018-07-17T12:31:53.694Z,74.40
2018-07-17T12:34:22.333Z,75.50
2018-07-17T12:36:50.897Z,77.90
2018-07-17T12:39:19.520Z,72.70
2018-07-17T12:41:48.124Z,75.30
2018-07-17T12:44:16.765Z,74.40
2018-07-17T12:46:45.409Z,77.00
2018-07-17T12:49:14.041Z,83.20
2018-07-17T12:51:42.629Z,74.10
2018-07-17T12:54:11.242Z,79.10
2018-07-17T12:56:39.901Z,78.20
2018-07-17T12:59:08.494Z,77.90
2018-07-17T13:01:37.137Z,73.30
2018-07-17T13:04:05.793Z,73.30
2018-07-17T13:06:34.411Z,75.20
2018-07-17T13:09:03.148Z,71.40
2018-07-17T13:11:32.589Z,75.20
2018-07-17T13:14:01.189Z,80.00
2018-07-17T13:16:29.765Z,74.80
2018-07-17T13:18:58.370Z,71.10
2018-07-17T13:21:27.009Z,74.30
2018-07-17T13:23:55.958Z,79.10
2018-07-17T13:26:24.589Z,72.30
2018-07-17T13:28:53.488Z,76.60
2018-07-17T13:31:22.117Z,73.80
2018-07-17T13:33:50.788Z,70.00
2018-07-17T13:36:20.308Z,71.80
2018-07-17T13:38:48.909Z,69.60
2018-07-17T13:41:17.523Z,72.20
2018-07-17T13:43:46.193Z,72.00
2018-07-17T13:46:14.729Z,71.90
2018-07-17T13:48:43.325Z,72.90
2018-07-17T13:51:11.967Z,72.70
2018-07-17T13:53:40.545Z,71.80
2018-07-17T13:56:09.186Z,71.70
2018-07-17T13:58:37.785Z,67.30
2018-07-17T14:01:06.426Z,65.30
2018-07-17T14:03:35.000Z,68.80
2018-07-17T14:06:03.633Z,70.30
2018-07-17T14:08:32.970Z,71.70
2018-07-17T14:11:01.634Z,71.20
2018-07-17T14:13:30.241Z,74.70
2018-07-17T14:15:58.873Z,69.60
2018-07-17T14:18:27.466Z,68.90
2018-07-17T14:20:56.053Z,68.50
2018-07-17T14:23:24.724Z,72.90
2018-07-17T14:25:53.714Z,71.60
2018-07-17T14:28:22.296Z,71.00
2018-07-17T14:30:50.885Z,73.30
2018-07-17T14:33:19.485Z,67.50
2018-07-17T14:35:48.143Z,69.00
2018-07-17T14:38:16.766Z,69.40
2018-07-17T14:40:45.380Z,70.40
2018-07-17T14:43:13.981Z,70.20
2018-07-17T14:45:42.565Z,71.30
2018-07-17T14:48:11.209Z,69.20
2018-07-17T14:50:39.836Z,72.70
2018-07-17T14:53:08.490Z,70.30
2018-07-17T14:55:37.076Z,75.20
2018-07-17T14:58:05.840Z,78.40
2018-07-17T15:00:34.457Z,79.40
2018-07-17T15:03:03.085Z,79.80
2018-07-17T15:05:31.642Z,76.60
2018-07-17T15:08:00.277Z,71.50
2018-07-17T15:10:28.840Z,71.00
2018-07-17T15:12:57.440Z,75.80
2018-07-17T15:15:26.044Z,78.60
2018-07-17T15:17:54.658Z,75.00
2018-07-17T15:20:23.265Z,78.90
2018-07-17T15:22:51.947Z,78.90
2018-07-17T15:25:20.521Z,76.00
2018-07-17T15:27:49.219Z,76.60
2018-07-17T15:30:17.815Z,78.60
2018-07-17T15:32:46.377Z,81.20
2018-07-17T15:35:15.044Z,83.10
2018-07-17T15:37:43.583Z,81.30
2018-07-17T15:40:12.221Z,81.80
2018-07-17T15:42:40.798Z,83.60
2018-07-17T15:45:09.425Z,89.50
2018-07-17T15:47:38.026Z,81.90
2018-07-17T15:50:06.624Z,81.80
2018-07-17T15:52:35.250Z,82.80
2018-07-17T15:55:03.873Z,85.70
2018-07-17T15:57:32.510Z,85.70
2018-07-17T16:00:01.273Z,87.00
2018-07-17T16:02:29.838Z,85.30
2018-07-17T16:04:58.477Z,84.80
2018-07-17T16:07:27.153Z,84.60
2018-07-17T16:09:55.810Z,81.40
2018-07-17T16:12:24.410Z,86.60
2018-07-17T16:14:53.109Z,84.70
2018-07-17T16:17:21.840Z,86.60
2018-07-17T16:19:50.490Z,80.40
2018-07-17T16:22:19.083Z,82.00
2018-07-17T16:24:47.672Z,83.80
2018-07-17T16:27:16.293Z,80.30
2018-07-17T16:29:44.845Z,84.30
2018-07-17T16:32:13.449Z,82.60
2018-07-17T16:34:42.016Z,83.20
2018-07-17T16:37:10.633Z,83.70
2018-07-17T16:39:39.259Z,81.30
2018-07-17T16:42:07.894Z,85.10
2018-07-17T16:44:36.489Z,85.90
2018-07-17T16:47:05.221Z,86.80
2018-07-17T16:49:33.925Z,88.70
2018-07-17T16:52:02.521Z,88.70
2018-07-17T16:54:31.166Z,88.10
2018-07-17T16:56:59.739Z,87.10
2018-07-17T16:59:28.316Z,90.10
2018-07-17T17:01:56.939Z,89.10
2018-07-17T17:04:25.583Z,87.90
2018-07-17T17:06:54.177Z,88.10
2018-07-17T17:09:22.774Z,88.50
2018-07-17T17:11:51.362Z,89.60
2018-07-17T17:14:19.953Z,91.60
2018-07-17T17:16:48.521Z,96.90
2018-07-17T17:19:17.161Z,97.80
2018-07-17T17:21:45.761Z,96.80
2018-07-17T17:24:14.696Z,98.60
2018-07-17T17:26:43.273Z,98.80
2018-07-17T17:29:11.935Z,96.70
2018-07-17T17:31:40.577Z,94.50
2018-07-17T17:34:09.202Z,95.50
2018-07-17T17:36:37.885Z,93.90
2018-07-17T17:39:08.589Z,94.80
2018-07-17T17:41:37.263Z,94.30
2018-07-17T17:44:06.849Z,95.20
2018-07-17T17:46:35.462Z,95.80
2018-07-17T17:49:04.043Z,96.20
2018-07-17T17:51:32.753Z,99.00
2018-07-17T17:54:01.379Z,99.90
2018-07-17T17:56:30.123Z,99.90
2018-07-17T17:58:58.721Z,99.90
2018-07-17T18:01:27.301Z,99.90
2018-07-17T18:03:55.916Z,99.90
2018-07-17T18:06:24.516Z,99.90
2018-07-17T18:08:53.162Z,99.90
2018-07-17T18:11:21.805Z,99.90
2018-07-17T18:13:50.409Z,99.90
2018-07-17T18:16:18.996Z,99.90
2018-07-17T18:18:47.589Z,99.90
2018-07-17T18:21:16.258Z,99.90
2018-07-17T18:23:45.024Z,99.90
2018-07-17T18:26:13.601Z,99.90
2018-07-17T18:28:42.196Z,99.90
2018-07-17T18:31:13.519Z,99.90
2018-07-17T18:33:47.389Z,99.90
2018-07-17T18:36:19.318Z,99.90
2018-07-17T18:38:48.096Z,99.90
2018-07-17T18:41:17.766Z,99.90
2018-07-17T18:43:46.762Z,99.90
2018-07-17T18:46:15.373Z,99.90
2018-07-17T18:48:49.330Z,99.90
2018-07-17T18:51:18.381Z,99.90
2018-07-17T18:53:49.351Z,99.90
2018-07-17T18:56:20.184Z,99.90
2018-07-17T18:58:48.785Z,99.90
2018-07-17T19:01:17.445Z,99.90
2018-07-17T19:03:46.105Z,99.90
2018-07-17T19:06:17.714Z,99.90
2018-07-17T19:08:47.620Z,99.90
2018-07-17T19:11:17.565Z,99.90
2018-07-17T19:13:46.909Z,99.90
2018-07-17T19:16:17.512Z,99.90
2018-07-17T19:18:46.921Z,99.90
2018-07-17T19:21:16.066Z,99.90
2018-07-17T19:23:46.240Z,99.90
2018-07-17T19:26:15.161Z,99.90
2018-07-17T19:28:45.256Z,99.90
2018-07-17T19:31:14.868Z,99.90
2018-07-17T19:33:46.140Z,99.90
2018-07-17T19:36:16.119Z,99.90
2018-07-17T19:38:46.476Z,99.90
2018-07-17T19:41:15.082Z,99.90
2018-07-17T19:43:43.692Z,99.90
2018-07-17T19:46:12.313Z,99.90
2018-07-17T19:48:40.931Z,99.90
2018-07-17T19:51:09.550Z,99.90
2018-07-17T19:53:38.149Z,99.90
2018-07-17T19:56:06.724Z,99.90
2018-07-17T19:58:35.325Z,99.90
2018-07-17T20:01:04.010Z,99.90
2018-07-17T20:03:32.615Z,99.90
2018-07-17T20:06:01.237Z,99.90
2018-07-17T20:08:29.906Z,99.90
2018-07-17T20:10:58.464Z,99.90
2018-07-17T20:13:27.074Z,99.90
2018-07-17T20:18:23.906Z,99.90
2018-07-17T20:20:52.548Z,99.90
2018-07-17T20:23:21.193Z,99.90
2018-07-17T20:25:49.921Z,99.90
2018-07-17T20:28:18.520Z,99.90
2018-07-17T20:30:47.125Z,99.90
2018-07-17T20:33:15.714Z,99.90
2018-07-17T20:35:44.339Z,99.90
2018-07-17T20:38:12.961Z,99.90
2018-07-17T20:40:41.607Z,99.90
2018-07-17T20:43:10.177Z,99.90
2018-07-17T20:45:38.773Z,99.90
2018-07-17T20:48:07.392Z,99.90
2018-07-17T20:50:35.961Z,99.90
2018-07-17T20:53:04.601Z,99.90
2018-07-17T20:55:33.202Z,99.90
2018-07-17T20:58:01.790Z,99.90
2018-07-17T21:00:30.422Z,99.90
2018-07-17T21:02:59.069Z,99.90
2018-07-17T21:05:27.746Z,99.90
2018-07-17T21:07:56.345Z,99.90
2018-07-17T21:10:24.987Z,99.90
2018-07-17T21:12:53.578Z,99.90
2018-07-17T21:15:22.164Z,99.90
2018-07-17T21:17:50.754Z,99.90
2018-07-17T21:20:19.352Z,99.90
2018-07-17T21:22:47.935Z,99.90
2018-07-17T21:25:16.549Z,99.90
2018-07-17T21:27:45.126Z,99.90
2018-07-17T21:30:13.709Z,99.90
2018-07-17T21:32:42.302Z,99.90
2018-07-17T21:35:10.872Z,99.90
2018-07-17T21:40:07.819Z,99.90
2018-07-17T21:42:36.488Z,99.90
2018-07-17T21:45:05.153Z,99.90
2018-07-17T21:47:33.745Z,99.90
2018-07-17T21:50:02.321Z,99.90
2018-07-17T21:52:30.953Z,99.90
2018-07-17T21:54:59.512Z,99.90
2018-07-17T21:57:28.097Z,99.90
2018-07-17T21:59:56.680Z,99.90
2018-07-17T22:02:25.305Z,99.90
2018-07-17T22:04:53.963Z,99.90
2018-07-17T22:07:22.528Z,99.90
2018-07-17T22:09:51.149Z,99.90
2018-07-17T22:12:19.726Z,99.90
2018-07-17T22:14:48.321Z,99.90
2018-07-17T22:17:16.885Z,99.90
2018-07-17T22:19:45.531Z,99.90
2018-07-17T22:22:14.168Z,99.90
2018-07-17T22:24:42.781Z,99.90
2018-07-17T22:27:11.369Z,99.90
2018-07-17T22:29:39.957Z,99.90
2018-07-17T22:32:08.530Z,99.90
2018-07-17T22:34:37.122Z,99.90
2018-07-17T22:37:05.758Z,99.90
2018-07-17T22:39:34.334Z,99.90
2018-07-17T22:42:02.940Z,99.90
2018-07-17T22:44:31.512Z,99.90
2018-07-17T22:47:00.101Z,99.90
2018-07-17T22:49:28.674Z,99.90
2018-07-17T22:51:57.262Z,99.90
2018-07-17T22:54:25.825Z,99.90
2018-07-17T22:56:54.457Z,99.90
2018-07-17T22:59:23.137Z,99.90
2018-07-17T23:01:51.808Z,99.90
2018-07-17T23:04:20.393Z,99.90
2018-07-17T23:06:49.005Z,99.90
2018-07-17T23:09:17.600Z,99.90
2018-07-17T23:11:46.201Z,99.90
2018-07-17T23:14:14.773Z,99.90
2018-07-17T23:16:43.372Z,99.90
2018-07-17T23:19:11.949Z,99.90
2018-07-17T23:21:40.565Z,99.90
2018-07-17T23:24:09.234Z,99.90
2018-07-17T23:26:37.821Z,99.90
2018-07-17T23:29:06.438Z,99.90
2018-07-17T23:31:35.026Z,99.90
2018-07-17T23:34:03.706Z,99.90
2018-07-17T23:36:32.266Z,99.90
2018-07-17T23:39:00.885Z,99.90
2018-07-17T23:41:29.446Z,99.90
2018-07-17T23:43:58.044Z,99.90
2018-07-17T23:46:26.686Z,99.90
2018-07-17T23:48:55.269Z,99.90
2018-07-17T23:51:23.849Z,99.90
2018-07-17T23:53:52.412Z,99.90
2018-07-17T23:56:21.018Z,99.90
2018-07-17T23:58:49.585Z,99.90
